Air Navigation Services of Czech Republic
Airport: LKMT Updated:  25.07.2017 12:08:11  UTC
 METAR LKMT 25.07. 12:00 ...
METAR LKMT 251200Z 25013KT 9999 BKN037 BKN046 19/11 Q1004 NOSIG RMK REG QNH 1000=
 TAF LKMT 25.07. 11:00 ...
TAF LKMT 251100Z 2512/2618 23012KT 9999 SCT033      TEMPO 2512/2517 25014G24KT 9999 -SHRA BKN027      BECMG 2517/2519 CAVOK      BECMG 2607/2609 SCT040      PROB30 TEMPO 2612/2617 23016G26KT 7000 TSRA SCT033CB=